Manatee — FAA7601 — position and weather

sailwx.info

Track history (hours):
 
Tides and Currents Weather Stations Pressure Air Temp Water Temp Dewpoint Dewpoint Depression Visibility Wind Speed Wind Dir Waves Ship Positions

Manatee

Last reported at 2017-Oct-13 23:35 UTC. Time now 2017-Oct-17 13:54 UTC.
Position N 29°41' W 014°24'.

Length 13 m.

Type: Sailing vessel. MMSI: 227154030.

Date/timePositionNaut miles runAvg speedWind from/ knotsBaromVisibWave heightAir tempDewpointWater temp
2017-Oct-13 23:35N 29°41' W 014°24'1 6.5
2017-Oct-13 23:24N 29°42' W 014°24'33 6.6
2017-Oct-13 18:22N 30°11' W 014°43'3 6.4
2017-Oct-13 17:52N 30°14' W 014°45'12 4.2
2017-Oct-13 15:05N 30°24' W 014°52'1 4.1
2017-Oct-13 14:48N 30°25' W 014°51'1 4.1
2017-Oct-13 14:27N 30°26' W 014°51'3 5.1
2017-Oct-13 13:48N 30°29' W 014°53'2 5.7
2017-Oct-13 13:27N 30°31' W 014°54'16 6.1
2017-Oct-13 10:46N 30°46' W 015°03'3 6.9
2017-Oct-13 10:23N 30°48' W 015°05'3 6.8
2017-Oct-13 09:56N 30°50' W 015°07'  
Track history (hours):
 
Tides and Currents Weather Stations Pressure Air Temp Water Temp Dewpoint Dewpoint Depression Visibility Wind Speed Wind Dir Waves Ship Positions

Manatee

Last reported at 2017-Oct-13 23:35 UTC. Time now 2017-Oct-17 13:54 UTC.
Position N 29°41' W 014°24'.

Length 13 m.

Type: Sailing vessel. MMSI: 227154030.

Date/timePositionNaut miles runAvg speedWind from/ knotsBaromVisibWave heightAir tempDewpointWater temp
2017-Oct-13 23:35N 29°41' W 014°24'1 6.5
2017-Oct-13 23:24N 29°42' W 014°24'33 6.6
2017-Oct-13 18:22N 30°11' W 014°43'3 6.4
2017-Oct-13 17:52N 30°14' W 014°45'12 4.2
2017-Oct-13 15:05N 30°24' W 014°52'1 4.1
2017-Oct-13 14:48N 30°25' W 014°51'1 4.1
2017-Oct-13 14:27N 30°26' W 014°51'3 5.1
2017-Oct-13 13:48N 30°29' W 014°53'2 5.7
2017-Oct-13 13:27N 30°31' W 014°54'16 6.1
2017-Oct-13 10:46N 30°46' W 015°03'3 6.9
2017-Oct-13 10:23N 30°48' W 015°05'3 6.8
2017-Oct-13 09:56N 30°50' W 015°07'  

Dump ship's entire track history